createdAt,value
2023-05-11T00:02:03.212Z,11.98
2023-05-11T00:04:31.163Z,11.93
2023-05-11T00:06:59.167Z,11.85
2023-05-11T00:09:26.970Z,11.95
2023-05-11T00:11:55.608Z,12.02
2023-05-11T00:14:24.833Z,12.08
2023-05-11T00:16:52.657Z,12.10
2023-05-11T00:19:20.789Z,12.11
2023-05-11T00:21:48.700Z,12.12
2023-05-11T00:24:16.551Z,12.12
2023-05-11T00:26:44.436Z,12.07
2023-05-11T00:29:12.392Z,12.00
2023-05-11T00:31:41.873Z,11.98
2023-05-11T00:34:09.826Z,11.96
2023-05-11T00:36:41.210Z,11.89
2023-05-11T00:39:09.911Z,11.87
2023-05-11T00:41:37.794Z,11.88
2023-05-11T00:44:05.889Z,11.94
2023-05-11T00:46:34.375Z,11.99
2023-05-11T00:49:03.962Z,11.99
2023-05-11T00:51:33.111Z,12.02
2023-05-11T00:54:02.303Z,11.97
2023-05-11T00:56:30.434Z,11.98
2023-05-11T00:58:58.773Z,12.01
2023-05-11T01:01:27.959Z,11.98
2023-05-11T01:03:55.961Z,11.98
2023-05-11T01:06:31.874Z,11.96
2023-05-11T01:09:07.840Z,11.88
2023-05-11T01:11:43.522Z,11.78
2023-05-11T01:14:15.983Z,11.74
2023-05-11T01:16:48.140Z,11.71
2023-05-11T01:19:25.132Z,11.74
2023-05-11T01:21:54.870Z,11.66
2023-05-11T01:24:32.919Z,11.69
2023-05-11T01:27:15.725Z,11.69
2023-05-11T01:29:59.493Z,11.72
2023-05-11T01:32:33.232Z,11.77
2023-05-11T01:35:08.490Z,11.74
2023-05-11T01:37:38.067Z,11.73
2023-05-11T01:40:11.268Z,11.73
2023-05-11T01:42:45.666Z,11.70
2023-05-11T01:45:15.473Z,11.66
2023-05-11T01:47:46.788Z,11.65
2023-05-11T01:50:15.776Z,11.57
2023-05-11T01:52:46.050Z,11.62
2023-05-11T01:55:18.508Z,11.60
2023-05-11T01:57:47.477Z,11.65
2023-05-11T02:00:17.940Z,11.67
2023-05-11T02:02:49.347Z,11.63
2023-05-11T02:05:20.687Z,11.65
2023-05-11T02:07:50.741Z,11.65
2023-05-11T02:10:20.199Z,11.69
2023-05-11T02:12:52.186Z,11.69
2023-05-11T02:15:23.601Z,11.73
2023-05-11T02:17:54.680Z,11.73
2023-05-11T02:20:23.661Z,11.71
2023-05-11T02:22:52.507Z,11.70
2023-05-11T02:25:21.484Z,11.68
2023-05-11T02:27:49.902Z,11.65
2023-05-11T02:30:18.339Z,11.57
2023-05-11T02:32:52.937Z,11.54
2023-05-11T02:35:26.797Z,11.51
2023-05-11T02:37:58.056Z,11.50
2023-05-11T02:40:33.386Z,11.47
2023-05-11T02:43:10.196Z,11.43
2023-05-11T02:45:44.540Z,11.41
2023-05-11T02:48:18.069Z,11.45
2023-05-11T02:50:49.754Z,11.39
2023-05-11T02:53:19.806Z,11.35
2023-05-11T02:55:49.668Z,11.34
2023-05-11T02:58:19.221Z,11.40
2023-05-11T03:00:52.604Z,11.41
2023-05-11T03:03:20.730Z,11.40
2023-05-11T03:05:50.306Z,11.40
2023-05-11T03:08:18.411Z,11.38
2023-05-11T03:10:47.960Z,11.37
2023-05-11T03:13:16.696Z,11.33
2023-05-11T03:15:45.194Z,11.33
2023-05-11T03:18:14.427Z,11.37
2023-05-11T03:20:44.261Z,11.42
2023-05-11T03:23:14.462Z,11.44
2023-05-11T03:25:43.878Z,11.46
2023-05-11T03:28:13.653Z,11.49
2023-05-11T03:30:47.091Z,11.49
2023-05-11T03:33:14.985Z,11.50
2023-05-11T03:35:45.036Z,11.50
2023-05-11T03:38:17.055Z,11.52
2023-05-11T03:40:47.268Z,11.54
2023-05-11T03:43:18.942Z,11.50
2023-05-11T03:45:51.941Z,11.56
2023-05-11T03:48:20.944Z,11.59
2023-05-11T03:50:49.949Z,11.58
2023-05-11T03:53:20.751Z,11.59
2023-05-11T03:55:50.039Z,11.61
2023-05-11T03:58:18.161Z,11.57
2023-05-11T04:00:46.196Z,11.48
2023-05-11T04:03:15.830Z,11.47
2023-05-11T04:05:43.687Z,11.48
2023-05-11T04:08:14.116Z,11.50
2023-05-11T04:10:43.305Z,11.53
2023-05-11T04:13:11.269Z,11.53
2023-05-11T04:15:39.127Z,11.50
2023-05-11T04:18:07.046Z,11.52
2023-05-11T04:20:34.886Z,11.46
2023-05-11T04:23:03.711Z,11.30
2023-05-11T04:25:32.132Z,11.31
2023-05-11T04:28:01.354Z,11.32
2023-05-11T04:30:29.291Z,11.34
2023-05-11T04:32:57.947Z,11.40
2023-05-11T04:35:26.098Z,11.41
2023-05-11T04:37:53.914Z,11.38
2023-05-11T04:40:22.029Z,11.42
2023-05-11T04:42:50.198Z,11.49
2023-05-11T04:45:21.568Z,11.56
2023-05-11T04:47:49.524Z,11.64
2023-05-11T04:50:17.931Z,11.65
2023-05-11T04:52:46.111Z,11.73
2023-05-11T04:55:13.945Z,11.80
2023-05-11T04:57:41.910Z,11.87
2023-05-11T05:00:11.083Z,11.91
2023-05-11T05:02:40.349Z,11.95
2023-05-11T05:05:09.240Z,11.95
2023-05-11T05:07:37.082Z,11.96
2023-05-11T05:10:08.794Z,11.99
2023-05-11T05:12:36.766Z,11.95
2023-05-11T05:15:05.594Z,11.98
2023-05-11T05:17:33.695Z,12.01
2023-05-11T05:20:04.317Z,11.92
2023-05-11T05:22:32.532Z,11.95
2023-05-11T05:25:00.531Z,11.83
2023-05-11T05:27:28.468Z,11.91
2023-05-11T05:29:57.583Z,11.93
2023-05-11T05:32:26.748Z,11.95
2023-05-11T05:34:55.162Z,11.96
2023-05-11T05:37:25.023Z,11.83
2023-05-11T05:39:53.489Z,11.96
2023-05-11T05:42:22.399Z,12.04
2023-05-11T05:44:51.436Z,12.17
2023-05-11T05:47:20.145Z,12.25
2023-05-11T05:49:48.274Z,12.31
2023-05-11T05:52:16.073Z,12.44
2023-05-11T05:54:46.163Z,12.44
2023-05-11T05:57:15.801Z,12.45
2023-05-11T05:59:45.096Z,12.58
2023-05-11T06:02:14.201Z,12.62
2023-05-11T06:04:42.286Z,12.49
2023-05-11T06:07:10.363Z,12.47
2023-05-11T06:09:39.297Z,12.58
2023-05-11T06:12:10.006Z,12.74
2023-05-11T06:14:42.580Z,12.87
2023-05-11T06:17:10.873Z,12.99
2023-05-11T06:19:40.547Z,13.11
2023-05-11T06:22:09.571Z,13.14
2023-05-11T06:24:37.824Z,13.29
2023-05-11T06:27:05.858Z,13.30
2023-05-11T06:29:36.308Z,13.42
2023-05-11T06:32:06.204Z,13.37
2023-05-11T06:34:35.489Z,13.54
2023-05-11T06:37:04.164Z,13.66
2023-05-11T06:39:32.081Z,13.65
2023-05-11T06:42:04.192Z,13.70
2023-05-11T06:44:34.220Z,13.79
2023-05-11T06:47:03.522Z,13.67
2023-05-11T06:49:31.509Z,13.66
2023-05-11T06:51:59.475Z,13.60
2023-05-11T06:54:27.736Z,13.66
2023-05-11T06:56:55.748Z,13.88
2023-05-11T06:59:23.917Z,13.92
2023-05-11T07:01:51.757Z,13.90
2023-05-11T07:04:21.078Z,13.42
2023-05-11T07:06:51.310Z,13.46
2023-05-11T07:09:19.195Z,13.63
2023-05-11T07:11:47.159Z,13.40
2023-05-11T07:14:15.005Z,13.15
2023-05-11T07:16:42.912Z,13.20
2023-05-11T07:19:13.437Z,13.34
2023-05-11T07:21:42.711Z,13.55
2023-05-11T07:24:10.552Z,13.79
2023-05-11T07:26:38.364Z,13.86
2023-05-11T07:29:06.360Z,14.08
2023-05-11T07:31:35.461Z,14.24
2023-05-11T07:34:04.177Z,14.52
2023-05-11T07:36:32.101Z,14.35
2023-05-11T07:39:01.343Z,14.26
2023-05-11T07:41:29.926Z,14.54
2023-05-11T07:43:57.818Z,14.27
2023-05-11T07:46:25.682Z,14.54
2023-05-11T07:49:03.510Z,14.87
2023-05-11T07:51:35.815Z,14.94
2023-05-11T07:54:05.574Z,15.04
2023-05-11T07:56:35.374Z,15.50
2023-05-11T07:59:03.170Z,15.36
2023-05-11T08:01:31.479Z,15.56
2023-05-11T08:03:59.236Z,15.52
2023-05-11T08:06:27.040Z,15.87
2023-05-11T08:08:54.901Z,15.59
2023-05-11T08:11:24.276Z,16.06
2023-05-11T08:13:52.024Z,16.35
2023-05-11T08:16:19.840Z,16.34
2023-05-11T08:18:47.981Z,16.40
2023-05-11T08:21:16.042Z,16.33
2023-05-11T08:23:45.277Z,16.62
2023-05-11T08:26:13.326Z,17.00
2023-05-11T08:28:42.592Z,16.69
2023-05-11T08:31:10.517Z,17.00
2023-05-11T08:33:39.034Z,17.49
2023-05-11T08:36:08.759Z,17.43
2023-05-11T08:38:36.797Z,17.50
2023-05-11T08:41:05.454Z,18.31
2023-05-11T08:43:36.518Z,18.70
2023-05-11T08:46:08.257Z,18.47
2023-05-11T08:48:36.532Z,18.87
2023-05-11T08:51:04.767Z,18.03
2023-05-11T08:53:32.697Z,18.16
2023-05-11T08:56:01.101Z,18.62
2023-05-11T08:58:30.294Z,18.83
2023-05-11T09:01:00.119Z,19.04
2023-05-11T09:03:31.048Z,18.71
2023-05-11T09:06:01.100Z,18.67
2023-05-11T09:08:31.633Z,19.02
2023-05-11T09:11:00.934Z,18.62
2023-05-11T09:13:29.138Z,17.93
2023-05-11T09:15:56.989Z,18.48
2023-05-11T09:18:24.916Z,18.18
2023-05-11T09:20:54.207Z,18.63
2023-05-11T09:23:27.295Z,18.75
2023-05-11T09:25:55.806Z,18.32
2023-05-11T09:28:25.920Z,18.24
2023-05-11T09:30:54.381Z,18.37
2023-05-11T09:33:24.742Z,18.15
2023-05-11T09:35:54.932Z,18.59
2023-05-11T09:38:26.354Z,18.45
2023-05-11T09:40:55.555Z,18.91
2023-05-11T09:43:26.113Z,18.77
2023-05-11T09:45:56.051Z,18.92
2023-05-11T09:48:31.823Z,18.51
2023-05-11T09:51:03.969Z,18.73
2023-05-11T09:53:40.841Z,19.24
2023-05-11T09:56:09.055Z,19.61
2023-05-11T09:58:48.298Z,19.29
2023-05-11T10:01:17.462Z,19.84
2023-05-11T10:03:50.428Z,19.20
2023-05-11T10:06:20.431Z,19.82
2023-05-11T10:08:49.190Z,19.29
2023-05-11T10:11:17.387Z,20.02
2023-05-11T10:13:46.412Z,20.24
2023-05-11T10:16:17.319Z,19.47
2023-05-11T10:18:46.878Z,19.52
2023-05-11T10:21:16.661Z,20.08
2023-05-11T10:23:46.407Z,20.14
2023-05-11T10:26:15.114Z,19.73
2023-05-11T10:28:43.727Z,19.58
2023-05-11T10:31:12.181Z,19.53
2023-05-11T10:33:42.805Z,18.96
2023-05-11T10:36:12.320Z,19.78
2023-05-11T10:38:40.345Z,19.74
2023-05-11T10:41:29.864Z,19.77
2023-05-11T10:44:21.367Z,20.01
2023-05-11T10:47:09.735Z,20.39
2023-05-11T10:49:59.608Z,19.54
2023-05-11T10:52:44.749Z,19.48
2023-05-11T10:55:20.499Z,20.28
2023-05-11T10:58:04.387Z,19.52
2023-05-11T11:01:06.132Z,19.43
2023-05-11T11:03:34.278Z,18.96
2023-05-11T11:06:02.301Z,19.09
2023-05-11T11:08:30.346Z,19.85
2023-05-11T11:10:58.253Z,19.54
2023-05-11T11:13:27.547Z,19.25
2023-05-11T11:16:15.413Z,19.23
2023-05-11T11:18:44.530Z,19.41
2023-05-11T11:21:15.978Z,19.27
2023-05-11T11:23:45.869Z,20.07
2023-05-11T11:26:15.894Z,19.83
2023-05-11T11:29:13.236Z,19.85
2023-05-11T11:31:42.319Z,19.90
2023-05-11T11:34:39.217Z,19.92
2023-05-11T11:37:09.891Z,19.06
2023-05-11T11:39:53.680Z,19.13
2023-05-11T11:42:35.571Z,19.72
2023-05-11T11:45:31.497Z,19.81
2023-05-11T11:48:10.622Z,20.16
2023-05-11T11:50:38.628Z,19.89
2023-05-11T11:53:06.720Z,20.04
2023-05-11T11:55:55.636Z,20.54
2023-05-11T11:58:58.524Z,20.93
2023-05-11T12:01:31.380Z,20.45
2023-05-11T12:04:44.498Z,20.67
2023-05-11T12:07:14.123Z,20.26
2023-05-11T12:09:42.293Z,20.11
2023-05-11T12:12:11.360Z,20.04
2023-05-11T12:14:40.690Z,20.32
2023-05-11T12:17:15.393Z,20.53
2023-05-11T12:19:44.618Z,20.51
2023-05-11T12:22:14.364Z,20.55
2023-05-11T12:24:43.946Z,20.06
2023-05-11T12:27:12.071Z,20.29
2023-05-11T12:29:41.343Z,20.44
2023-05-11T12:32:14.467Z,20.51
2023-05-11T12:34:42.418Z,20.57
2023-05-11T12:37:10.581Z,21.34
2023-05-11T12:39:39.608Z,21.09
2023-05-11T12:42:07.793Z,20.68
2023-05-11T12:44:36.280Z,20.43
2023-05-11T12:47:04.920Z,20.66
2023-05-11T12:49:34.408Z,21.06
2023-05-11T12:52:07.861Z,20.93
2023-05-11T12:54:38.645Z,20.71
2023-05-11T12:57:08.425Z,20.84
2023-05-11T12:59:38.360Z,21.04
2023-05-11T13:02:11.454Z,20.36
2023-05-11T13:04:42.427Z,20.23
2023-05-11T13:07:10.904Z,20.19
2023-05-11T13:09:39.591Z,19.85
2023-05-11T13:12:21.256Z,19.67
2023-05-11T13:15:05.942Z,20.22
2023-05-11T13:17:35.231Z,20.40
2023-05-11T13:20:22.090Z,19.83
2023-05-11T13:22:51.110Z,20.00
2023-05-11T13:25:20.645Z,20.01
2023-05-11T13:27:49.082Z,19.70
2023-05-11T13:30:17.145Z,19.70
2023-05-11T13:32:45.071Z,19.65
2023-05-11T13:35:13.198Z,19.28
2023-05-11T13:37:42.518Z,19.34
2023-05-11T13:40:11.608Z,19.17
2023-05-11T13:42:39.516Z,19.19
2023-05-11T13:45:08.585Z,19.25
2023-05-11T13:47:37.078Z,19.13
2023-05-11T13:50:05.865Z,19.18
2023-05-11T13:52:33.777Z,19.07
2023-05-11T13:55:03.041Z,19.13
2023-05-11T13:57:31.098Z,18.98
2023-05-11T13:59:59.026Z,18.97
2023-05-11T14:02:27.105Z,19.08
2023-05-11T14:04:55.018Z,19.08
2023-05-11T14:07:27.510Z,18.98
2023-05-11T14:10:01.888Z,19.17
2023-05-11T14:12:29.892Z,18.88
2023-05-11T14:14:57.897Z,18.67
2023-05-11T14:17:25.912Z,18.91
2023-05-11T14:19:53.904Z,19.10
2023-05-11T14:22:21.829Z,18.86
2023-05-11T14:24:49.880Z,18.91
2023-05-11T14:27:19.191Z,18.86
2023-05-11T14:29:47.116Z,18.55
2023-05-11T14:32:15.147Z,18.40
2023-05-11T14:34:43.422Z,18.42
2023-05-11T14:37:11.614Z,18.57
2023-05-11T14:39:39.678Z,18.56
2023-05-11T14:42:08.172Z,18.77
2023-05-11T14:44:37.907Z,18.61
2023-05-11T14:47:06.390Z,18.32
2023-05-11T14:49:34.263Z,18.42
2023-05-11T14:52:02.091Z,18.13
2023-05-11T14:54:30.034Z,18.33
2023-05-11T14:56:59.563Z,18.33
2023-05-11T14:59:28.117Z,17.91
2023-05-11T15:01:57.593Z,17.97
2023-05-11T15:04:26.321Z,17.98
2023-05-11T15:06:55.371Z,17.83
2023-05-11T15:09:24.043Z,17.69
2023-05-11T15:11:51.999Z,17.88
2023-05-11T15:14:19.922Z,17.62
2023-05-11T15:16:47.902Z,17.63
2023-05-11T15:19:17.503Z,17.78
2023-05-11T15:21:45.520Z,17.36
2023-05-11T15:24:13.334Z,17.43
2023-05-11T15:26:41.345Z,17.50
2023-05-11T15:29:09.285Z,17.16
2023-05-11T15:31:37.214Z,17.23
2023-05-11T15:34:05.353Z,17.13
2023-05-11T15:36:35.152Z,17.22
2023-05-11T15:39:03.061Z,16.86
2023-05-11T15:41:31.130Z,17.13
2023-05-11T15:43:59.293Z,17.19
2023-05-11T15:46:27.639Z,17.26
2023-05-11T15:48:58.961Z,17.12
2023-05-11T15:51:28.683Z,17.36
2023-05-11T15:53:58.584Z,17.39
2023-05-11T15:56:27.124Z,17.19
2023-05-11T15:58:55.318Z,17.23
2023-05-11T16:01:23.388Z,17.30
2023-05-11T16:03:51.507Z,17.35
2023-05-11T16:06:19.439Z,17.09
2023-05-11T16:08:48.048Z,16.99
2023-05-11T16:11:18.774Z,17.05
2023-05-11T16:13:47.111Z,16.87
2023-05-11T16:16:15.113Z,17.00
2023-05-11T16:18:43.031Z,16.95
2023-05-11T16:21:10.925Z,16.93
2023-05-11T16:23:38.849Z,16.62
2023-05-11T16:26:11.049Z,16.82
2023-05-11T16:28:40.277Z,16.85
2023-05-11T16:31:09.251Z,17.01
2023-05-11T16:33:37.752Z,16.97
2023-05-11T16:36:06.497Z,17.10
2023-05-11T16:38:34.316Z,16.96
2023-05-11T16:41:02.512Z,16.90
2023-05-11T16:43:30.788Z,16.94
2023-05-11T16:46:00.971Z,17.00
2023-05-11T16:48:29.210Z,16.72
2023-05-11T16:50:57.229Z,16.39
2023-05-11T16:53:27.194Z,15.99
2023-05-11T16:55:55.836Z,15.92
2023-05-11T16:58:23.964Z,15.96
2023-05-11T17:00:52.029Z,15.89
2023-05-11T17:03:21.541Z,15.67
2023-05-11T17:05:49.518Z,15.68
2023-05-11T17:08:17.410Z,15.63
2023-05-11T17:10:46.197Z,15.71
2023-05-11T17:13:13.994Z,15.58
2023-05-11T17:15:42.079Z,15.55
2023-05-11T17:18:10.041Z,15.43
2023-05-11T17:20:39.293Z,15.39
2023-05-11T17:23:07.158Z,15.32
2023-05-11T17:25:35.166Z,15.35
2023-05-11T17:28:03.029Z,15.33
2023-05-11T17:30:47.196Z,14.95
2023-05-11T17:33:17.165Z,14.98
2023-05-11T17:35:46.605Z,15.04
2023-05-11T17:38:14.550Z,15.06
2023-05-11T17:40:42.492Z,15.11
2023-05-11T17:43:10.669Z,14.90
2023-05-11T17:45:38.682Z,14.90
2023-05-11T17:48:07.313Z,14.88
2023-05-11T17:50:37.529Z,14.81
2023-05-11T17:53:07.025Z,14.88
2023-05-11T17:55:38.582Z,14.92
2023-05-11T17:58:06.547Z,14.76
2023-05-11T18:00:34.489Z,14.80
2023-05-11T18:06:05.745Z,14.62
2023-05-11T18:08:36.595Z,14.61
2023-05-11T18:11:04.630Z,14.61
2023-05-11T18:13:32.493Z,14.62
2023-05-11T18:16:00.361Z,14.70
2023-05-11T18:18:28.242Z,14.68
2023-05-11T18:20:56.500Z,14.80
2023-05-11T18:23:25.393Z,14.64
2023-05-11T18:25:54.584Z,14.65
2023-05-11T18:28:22.454Z,14.55
2023-05-11T18:30:50.285Z,14.50
2023-05-11T18:33:18.084Z,14.45
2023-05-11T18:35:46.705Z,14.42
2023-05-11T18:38:14.688Z,14.46
2023-05-11T18:40:42.798Z,14.54
2023-05-11T18:43:12.227Z,14.50
2023-05-11T18:45:41.308Z,14.53
2023-05-11T18:48:11.453Z,14.56
2023-05-11T18:50:40.370Z,14.61
2023-05-11T18:53:08.457Z,14.70
2023-05-11T18:55:49.084Z,14.75
2023-05-11T18:58:22.118Z,14.78
2023-05-11T19:00:51.197Z,14.75
2023-05-11T19:03:20.645Z,14.79
2023-05-11T19:05:49.676Z,14.77
2023-05-11T19:08:17.956Z,14.77
2023-05-11T19:10:47.853Z,14.76
2023-05-11T19:13:16.102Z,14.81
2023-05-11T19:15:45.666Z,14.78
2023-05-11T19:18:15.332Z,14.78
2023-05-11T19:20:43.723Z,14.69
2023-05-11T19:23:11.634Z,14.60
2023-05-11T19:25:39.611Z,14.59
2023-05-11T19:28:07.402Z,14.64
2023-05-11T19:30:35.304Z,14.59
2023-05-11T19:33:05.189Z,14.57
2023-05-11T19:35:33.276Z,14.59
2023-05-11T19:38:01.641Z,14.61
2023-05-11T19:43:00.941Z,14.59
2023-05-11T19:45:31.334Z,14.58
2023-05-11T19:48:00.287Z,14.60
2023-05-11T19:50:29.760Z,14.54
2023-05-11T19:52:58.141Z,14.45
2023-05-11T19:55:26.002Z,14.35
2023-05-11T19:57:54.418Z,14.39
2023-05-11T20:00:25.158Z,14.43
2023-05-11T20:02:53.345Z,14.38
2023-05-11T20:05:21.307Z,14.37
2023-05-11T20:07:50.607Z,14.32
2023-05-11T20:10:18.730Z,14.22
2023-05-11T20:12:46.702Z,14.21
2023-05-11T20:15:14.495Z,14.09
2023-05-11T20:17:42.556Z,13.98
2023-05-11T20:20:11.352Z,13.91
2023-05-11T20:22:42.185Z,13.97
2023-05-11T20:25:18.352Z,14.00
2023-05-11T20:27:46.979Z,14.02
2023-05-11T20:30:15.653Z,13.97
2023-05-11T20:35:14.482Z,13.84
2023-05-11T20:37:42.454Z,13.87
2023-05-11T20:40:13.106Z,13.78
2023-05-11T20:42:41.018Z,13.66
2023-05-11T20:45:10.057Z,13.71
2023-05-11T20:47:37.980Z,13.65
2023-05-11T20:50:08.390Z,13.65
2023-05-11T20:52:36.273Z,13.69
2023-05-11T20:55:04.213Z,13.72
2023-05-11T20:57:33.753Z,13.66
2023-05-11T21:00:05.161Z,13.66
2023-05-11T21:02:33.286Z,13.69
2023-05-11T21:05:02.727Z,13.73
2023-05-11T21:07:30.779Z,13.63
2023-05-11T21:09:58.661Z,13.61
2023-05-11T21:12:26.754Z,13.64
2023-05-11T21:14:57.135Z,13.67
2023-05-11T21:17:25.209Z,13.65
2023-05-11T21:19:53.189Z,13.58
2023-05-11T21:22:21.495Z,13.62
2023-05-11T21:24:49.347Z,13.65
2023-05-11T21:27:17.210Z,13.64
2023-05-11T21:29:45.129Z,13.67
2023-05-11T21:32:14.341Z,13.68
2023-05-11T21:34:42.489Z,13.68
2023-05-11T21:37:10.641Z,13.67
2023-05-11T21:39:38.433Z,13.60
2023-05-11T21:42:07.030Z,13.59
2023-05-11T21:44:34.926Z,13.57
2023-05-11T21:47:02.835Z,13.61
2023-05-11T21:49:33.125Z,13.58
2023-05-11T21:52:01.062Z,13.55
2023-05-11T21:54:28.915Z,13.57
2023-05-11T21:56:56.754Z,13.55
2023-05-11T21:59:26.629Z,13.54
2023-05-11T22:01:54.863Z,13.55
2023-05-11T22:04:23.474Z,13.55
2023-05-11T22:06:52.852Z,13.56
2023-05-11T22:09:20.676Z,13.50
2023-05-11T22:11:48.521Z,13.44
2023-05-11T22:14:16.378Z,13.38
2023-05-11T22:16:44.443Z,13.38
2023-05-11T22:19:12.593Z,13.37
2023-05-11T22:21:41.174Z,13.40
2023-05-11T22:24:10.586Z,13.34
2023-05-11T22:26:38.508Z,13.37
2023-05-11T22:29:06.514Z,13.35
2023-05-11T22:31:34.463Z,13.39
2023-05-11T22:34:02.310Z,13.38
2023-05-11T22:36:30.191Z,13.37
2023-05-11T22:38:58.172Z,13.39
2023-05-11T22:41:27.520Z,13.39
2023-05-11T22:43:55.413Z,13.34
2023-05-11T22:46:23.473Z,13.35
2023-05-11T22:48:51.433Z,13.37
2023-05-11T22:51:19.247Z,13.37
2023-05-11T22:53:48.233Z,13.38
2023-05-11T22:56:16.612Z,13.34
2023-05-11T22:58:45.806Z,13.28
2023-05-11T23:01:14.192Z,13.25
2023-05-11T23:03:42.159Z,13.16
2023-05-11T23:06:09.989Z,13.07
2023-05-11T23:08:37.848Z,13.02
2023-05-11T23:11:05.861Z,13.09
2023-05-11T23:13:33.713Z,13.16
2023-05-11T23:16:04.313Z,13.12
2023-05-11T23:18:32.894Z,13.10
2023-05-11T23:21:01.333Z,13.15
2023-05-11T23:23:29.349Z,13.12
2023-05-11T23:25:57.163Z,13.14
2023-05-11T23:28:25.022Z,13.13
2023-05-11T23:30:52.812Z,13.14
2023-05-11T23:33:22.827Z,13.07
2023-05-11T23:35:50.660Z,13.09
2023-05-11T23:38:18.538Z,13.11
2023-05-11T23:40:46.344Z,13.19
2023-05-11T23:43:14.202Z,13.19
2023-05-11T23:45:42.422Z,13.18
2023-05-11T23:48:10.581Z,13.10
2023-05-11T23:50:39.881Z,13.08
2023-05-11T23:53:07.761Z,13.11
2023-05-11T23:55:35.571Z,13.03
2023-05-11T23:58:03.353Z,13.07
